createdAt,value
2023-03-21T00:01:51.993Z,99808.77
2023-03-21T00:04:23.935Z,99804.13
2023-03-21T00:06:50.533Z,99798.57
2023-03-21T00:09:17.455Z,99795.98
2023-03-21T00:11:45.206Z,99792.47
2023-03-21T00:14:15.535Z,99784.33
2023-03-21T00:16:45.273Z,99786.29
2023-03-21T00:19:13.811Z,99783.47
2023-03-21T00:21:59.623Z,99780.61
2023-03-21T00:24:29.412Z,99777.09
2023-03-21T00:33:22.762Z,99773.45
2023-03-21T00:35:58.757Z,99776.20
2023-03-21T00:38:31.506Z,99775.27
2023-03-21T00:41:04.629Z,99778.65
2023-03-21T00:43:41.731Z,99777.04
2023-03-21T00:46:09.122Z,99777.91
2023-03-21T00:48:36.592Z,99775.60
2023-03-21T00:51:15.713Z,99774.55
2023-03-21T00:53:43.059Z,99769.94
2023-03-21T00:56:10.793Z,99769.15
2023-03-21T00:58:39.953Z,99771.20
2023-03-21T01:01:09.521Z,99772.46
2023-03-21T01:03:43.011Z,99773.91
2023-03-21T01:06:13.820Z,99768.58
2023-03-21T01:08:57.821Z,99766.88
2023-03-21T01:11:27.033Z,99770.81
2023-03-21T01:14:10.972Z,99771.03
2023-03-21T01:16:44.164Z,99770.30
2023-03-21T01:19:25.010Z,99769.58
2023-03-21T01:21:54.062Z,99767.95
2023-03-21T01:24:21.211Z,99765.30
2023-03-21T01:26:48.683Z,99767.25
2023-03-21T01:29:15.921Z,99772.50
2023-03-21T01:31:43.463Z,99775.52
2023-03-21T01:34:10.942Z,99776.54
2023-03-21T01:36:57.779Z,99777.84
2023-03-21T01:39:25.333Z,99777.02
2023-03-21T01:41:52.864Z,99778.36
2023-03-21T01:44:25.778Z,99778.36
2023-03-21T01:47:09.719Z,99774.30
2023-03-21T01:49:49.880Z,99774.48
2023-03-21T01:52:36.459Z,99778.64
2023-03-21T01:55:12.091Z,99776.31
2023-03-21T01:58:07.271Z,99774.42
2023-03-21T02:00:46.869Z,99774.27
2023-03-21T02:03:35.431Z,99768.35
2023-03-21T02:06:47.024Z,99768.27
2023-03-21T02:09:37.396Z,99764.98
2023-03-21T02:12:07.406Z,99767.27
2023-03-21T02:14:36.306Z,99769.00
2023-03-21T02:17:39.419Z,99766.65
2023-03-21T02:20:11.978Z,99769.48
2023-03-21T02:22:44.336Z,99766.58
2023-03-21T02:25:22.112Z,99769.98
2023-03-21T02:28:02.427Z,99762.34
2023-03-21T02:30:51.217Z,99758.44
2023-03-21T02:33:26.115Z,99757.04
2023-03-21T02:36:18.048Z,99751.75
2023-03-21T02:38:54.729Z,99753.56
2023-03-21T02:41:46.409Z,99749.19
2023-03-21T02:44:19.612Z,99751.75
2023-03-21T02:47:06.274Z,99751.46
2023-03-21T02:50:09.488Z,99746.81
2023-03-21T02:52:39.715Z,99745.91
2023-03-21T02:55:15.710Z,99750.34
2023-03-21T02:57:57.071Z,99751.47
2023-03-21T03:00:27.429Z,99746.32
2023-03-21T03:03:08.157Z,99746.48
2023-03-21T03:05:38.078Z,99748.20
2023-03-21T03:08:26.620Z,99744.98
2023-03-21T03:11:24.619Z,99751.00
2023-03-21T03:14:36.998Z,99753.30
2023-03-21T03:17:37.446Z,99751.48
2023-03-21T03:20:27.299Z,99751.95
2023-03-21T03:23:47.310Z,99748.91
2023-03-21T03:26:39.955Z,99745.88
2023-03-21T03:29:12.378Z,99745.66
2023-03-21T03:31:44.517Z,99746.48
2023-03-21T03:34:16.933Z,99749.48
2023-03-21T03:36:47.913Z,99749.70
2023-03-21T03:39:16.630Z,99750.09
2023-03-21T03:42:18.288Z,99749.91
2023-03-21T03:44:50.516Z,99748.89
2023-03-21T03:47:41.945Z,99747.66
2023-03-21T03:50:24.072Z,99751.69
2023-03-21T03:52:57.388Z,99749.96
2023-03-21T03:55:34.819Z,99751.77
2023-03-21T03:58:21.734Z,99746.35
2023-03-21T04:00:52.464Z,99740.44
2023-03-21T04:03:24.478Z,99744.40
2023-03-21T04:05:52.920Z,99746.16
2023-03-21T04:08:20.071Z,99750.39
2023-03-21T04:10:51.693Z,99751.64
2023-03-21T04:13:19.380Z,99753.23
2023-03-21T04:16:10.122Z,99746.59
2023-03-21T04:18:39.379Z,99744.27
2023-03-21T04:21:13.380Z,99738.45
2023-03-21T04:23:41.585Z,99741.77
2023-03-21T04:26:09.025Z,99740.52
2023-03-21T04:28:39.964Z,99745.33
2023-03-21T04:31:28.721Z,99746.46
2023-03-21T04:34:09.913Z,99748.52
2023-03-21T04:36:46.792Z,99751.63
2023-03-21T04:39:15.459Z,99754.41
2023-03-21T04:41:44.827Z,99752.23
2023-03-21T04:44:13.117Z,99753.95
2023-03-21T04:46:40.697Z,99752.59
2023-03-21T04:49:08.166Z,99756.29
2023-03-21T04:51:35.948Z,99754.66
2023-03-21T04:54:06.065Z,99748.46
2023-03-21T04:56:38.323Z,99747.80
2023-03-21T04:59:13.651Z,99749.91
2023-03-21T05:01:41.431Z,99750.59
2023-03-21T05:04:09.596Z,99752.14
2023-03-21T05:06:37.778Z,99750.27
2023-03-21T05:09:08.707Z,99754.30
2023-03-21T05:11:40.424Z,99756.59
2023-03-21T05:14:14.166Z,99760.92
2023-03-21T05:16:45.202Z,99760.80
2023-03-21T05:19:14.097Z,99761.02
2023-03-21T05:21:42.484Z,99758.92
2023-03-21T05:24:22.018Z,99758.85
2023-03-21T05:26:52.699Z,99757.34
2023-03-21T05:29:22.733Z,99756.92
2023-03-21T05:31:57.184Z,99755.36
2023-03-21T05:34:24.324Z,99758.52
2023-03-21T05:36:56.754Z,99762.44
2023-03-21T05:39:25.994Z,99763.45
2023-03-21T05:42:00.843Z,99763.06
2023-03-21T05:44:27.995Z,99766.08
2023-03-21T05:46:59.790Z,99763.69
2023-03-21T05:49:32.523Z,99761.58
2023-03-21T05:52:01.002Z,99757.09
2023-03-21T05:54:27.931Z,99760.16
2023-03-21T05:56:55.315Z,99760.02
2023-03-21T05:59:43.855Z,99765.36
2023-03-21T06:02:11.716Z,99763.80
2023-03-21T06:04:39.492Z,99761.17
2023-03-21T06:07:12.011Z,99763.71
2023-03-21T06:09:56.137Z,99757.10
2023-03-21T06:12:23.203Z,99761.17
2023-03-21T06:15:16.007Z,99762.55
2023-03-21T06:17:53.953Z,99764.61
2023-03-21T06:20:21.007Z,99765.23
2023-03-21T06:22:56.590Z,99760.73
2023-03-21T06:25:24.119Z,99763.03
2023-03-21T06:27:51.555Z,99760.02
2023-03-21T06:30:19.220Z,99757.02
2023-03-21T06:32:56.283Z,99756.30
2023-03-21T06:35:23.561Z,99757.20
2023-03-21T06:37:52.467Z,99761.42
2023-03-21T06:40:19.852Z,99759.29
2023-03-21T06:42:46.849Z,99752.23
2023-03-21T06:45:14.023Z,99756.94
2023-03-21T06:47:42.786Z,99758.92
2023-03-21T06:50:19.772Z,99755.34
2023-03-21T06:52:48.593Z,99755.56
2023-03-21T06:55:16.446Z,99753.52
2023-03-21T06:57:47.956Z,99753.77
2023-03-21T07:00:15.534Z,99757.79
2023-03-21T07:02:55.968Z,99752.73
2023-03-21T07:05:26.581Z,99754.77
2023-03-21T07:07:53.492Z,99752.33
2023-03-21T07:10:25.637Z,99751.42
2023-03-21T07:13:00.294Z,99748.39
2023-03-21T07:15:38.315Z,99749.23
2023-03-21T07:18:06.355Z,99746.58
2023-03-21T07:20:34.982Z,99750.25
2023-03-21T07:23:01.996Z,99745.45
2023-03-21T07:25:30.252Z,99748.19
2023-03-21T07:27:57.203Z,99749.42
2023-03-21T07:30:24.175Z,99751.07
2023-03-21T07:32:51.133Z,99755.17
2023-03-21T07:35:18.347Z,99753.77
2023-03-21T07:37:49.009Z,99755.93
2023-03-21T07:40:16.995Z,99753.96
2023-03-21T07:42:44.338Z,99755.48
2023-03-21T07:45:21.435Z,99761.29
2023-03-21T07:47:49.447Z,99759.17
2023-03-21T07:50:16.521Z,99762.04
2023-03-21T07:52:46.542Z,99762.59
2023-03-21T07:55:13.875Z,99757.34
2023-03-21T07:57:41.729Z,99757.52
2023-03-21T08:00:09.260Z,99757.39
2023-03-21T08:02:43.895Z,99764.27
2023-03-21T08:05:11.941Z,99764.89
2023-03-21T08:07:39.185Z,99764.11
2023-03-21T08:10:06.852Z,99756.00
2023-03-21T08:12:35.548Z,99758.39
2023-03-21T08:15:03.591Z,99758.55
2023-03-21T08:17:30.826Z,99762.52
2023-03-21T08:19:58.050Z,99762.14
2023-03-21T08:22:25.558Z,99760.91
2023-03-21T08:24:52.831Z,99754.80
2023-03-21T08:27:20.901Z,99754.39
2023-03-21T08:29:47.797Z,99755.40
2023-03-21T08:32:14.844Z,99756.86
2023-03-21T08:34:42.840Z,99757.70
2023-03-21T08:37:09.876Z,99756.51
2023-03-21T08:39:37.019Z,99751.63
2023-03-21T08:42:06.435Z,99749.00
2023-03-21T08:44:34.145Z,99748.88
2023-03-21T08:47:01.597Z,99746.94
2023-03-21T08:49:28.537Z,99747.81
2023-03-21T08:51:56.474Z,99747.02
2023-03-21T08:54:23.456Z,99750.98
2023-03-21T08:56:51.533Z,99750.14
2023-03-21T08:59:18.752Z,99744.92
2023-03-21T09:01:46.969Z,99744.42
2023-03-21T09:04:14.004Z,99745.33
2023-03-21T09:06:49.192Z,99738.10
2023-03-21T09:09:16.660Z,99738.92
2023-03-21T09:11:43.828Z,99737.64
2023-03-21T09:14:12.532Z,99734.29
2023-03-21T09:16:39.586Z,99730.53
2023-03-21T09:19:08.787Z,99729.78
2023-03-21T09:21:42.497Z,99730.99
2023-03-21T09:24:09.875Z,99732.70
2023-03-21T09:26:41.765Z,99734.98
2023-03-21T09:29:09.055Z,99735.23
2023-03-21T09:31:36.071Z,99732.73
2023-03-21T09:34:04.101Z,99733.66
2023-03-21T09:36:32.322Z,99736.85
2023-03-21T09:39:04.078Z,99735.65
2023-03-21T09:41:40.649Z,99735.36
2023-03-21T09:44:26.360Z,99733.85
2023-03-21T09:47:25.401Z,99735.80
2023-03-21T09:50:07.502Z,99736.21
2023-03-21T09:53:16.687Z,99732.65
2023-03-21T09:55:44.647Z,99731.61
2023-03-21T09:58:31.117Z,99734.94
2023-03-21T10:01:07.594Z,99725.59
2023-03-21T10:03:35.256Z,99729.45
2023-03-21T10:06:11.387Z,99728.67
2023-03-21T10:08:41.347Z,99728.48
2023-03-21T10:11:21.695Z,99725.69
2023-03-21T10:13:51.148Z,99721.40
2023-03-21T10:16:38.008Z,99718.66
2023-03-21T10:19:10.730Z,99722.51
2023-03-21T10:21:59.837Z,99716.14
2023-03-21T10:24:28.348Z,99713.11
2023-03-21T10:26:55.428Z,99715.95
2023-03-21T10:29:28.338Z,99712.10
2023-03-21T10:31:55.906Z,99707.41
2023-03-21T10:34:32.374Z,99705.13
2023-03-21T10:37:00.621Z,99700.10
2023-03-21T10:39:37.992Z,99701.62
2023-03-21T10:42:05.975Z,99691.73
2023-03-21T10:44:34.835Z,99689.73
2023-03-21T10:47:09.348Z,99689.00
2023-03-21T10:49:56.428Z,99683.26
2023-03-21T10:55:32.337Z,99679.60
2023-03-21T10:58:11.207Z,99678.70
2023-03-21T11:00:39.608Z,99676.84
2023-03-21T11:03:07.597Z,99674.84
2023-03-21T11:05:40.508Z,99676.21
2023-03-21T11:08:11.979Z,99675.78
2023-03-21T11:10:54.233Z,99677.25
2023-03-21T11:13:28.052Z,99670.84
2023-03-21T11:16:04.511Z,99672.09
2023-03-21T11:18:34.268Z,99675.98
2023-03-21T11:21:06.531Z,99674.74
2023-03-21T11:23:34.301Z,99676.39
2023-03-21T11:34:04.732Z,99677.20
2023-03-21T11:36:38.336Z,99673.20
2023-03-21T11:39:10.992Z,99677.58
2023-03-21T11:41:39.599Z,99671.54
2023-03-21T11:44:09.748Z,99673.66
2023-03-21T11:46:40.079Z,99675.90
2023-03-21T11:49:08.445Z,99670.54
2023-03-21T11:51:45.419Z,99664.81
2023-03-21T11:54:17.396Z,99664.90
2023-03-21T11:56:51.827Z,99662.61
2023-03-21T11:59:27.806Z,99663.00
2023-03-21T12:02:34.392Z,99659.09
2023-03-21T12:05:21.129Z,99656.84
2023-03-21T12:08:10.808Z,99650.80
2023-03-21T12:10:46.560Z,99645.38
2023-03-21T12:13:35.887Z,99641.16
2023-03-21T12:16:21.915Z,99635.98
2023-03-21T12:19:19.469Z,99633.13
2023-03-21T12:22:30.756Z,99630.84
2023-03-21T12:24:58.293Z,99627.96
2023-03-21T12:27:43.602Z,99623.98
2023-03-21T12:30:24.121Z,99628.82
2023-03-21T12:32:57.588Z,99625.39
2023-03-21T12:35:36.429Z,99618.89
2023-03-21T12:38:19.909Z,99621.65
2023-03-21T12:41:15.919Z,99621.17
2023-03-21T12:43:42.510Z,99617.95
2023-03-21T12:46:31.438Z,99617.00
2023-03-21T12:49:17.214Z,99617.89
2023-03-21T12:51:50.545Z,99614.28
2023-03-21T12:54:27.820Z,99615.16
2023-03-21T12:56:54.991Z,99614.78
2023-03-21T12:59:30.908Z,99610.34
2023-03-21T13:02:04.929Z,99610.45
2023-03-21T13:04:42.091Z,99608.33
2023-03-21T13:07:11.086Z,99604.95
2023-03-21T13:09:41.071Z,99604.96
2023-03-21T13:12:32.526Z,99601.02
2023-03-21T13:15:24.677Z,99602.98
2023-03-21T13:18:19.358Z,99599.41
2023-03-21T13:20:52.960Z,99594.89
2023-03-21T13:23:24.730Z,99596.98
2023-03-21T13:25:54.016Z,99598.30
2023-03-21T13:28:27.527Z,99591.02
2023-03-21T13:30:53.986Z,99589.20
2023-03-21T13:33:24.095Z,99592.98
2023-03-21T13:36:05.669Z,99597.58
2023-03-21T13:38:33.821Z,99589.42
2023-03-21T13:49:10.129Z,99598.40
2023-03-21T13:51:37.561Z,99597.38
2023-03-21T13:54:06.921Z,99595.11
2023-03-21T14:03:13.265Z,99592.67
2023-03-21T14:05:40.946Z,99603.80
2023-03-21T14:08:15.644Z,99602.40
2023-03-21T14:10:46.751Z,99607.23
2023-03-21T14:13:19.000Z,99597.51
2023-03-21T14:15:56.422Z,99601.98
2023-03-21T14:18:35.296Z,99601.08
2023-03-21T14:21:23.807Z,99600.19
2023-03-21T14:24:05.029Z,99599.02
2023-03-21T14:26:33.520Z,99599.89
2023-03-21T14:29:02.762Z,99597.86
2023-03-21T14:31:31.442Z,99598.09
2023-03-21T14:33:58.240Z,99596.39
2023-03-21T14:36:27.196Z,99596.02
2023-03-21T14:39:15.226Z,99592.77
2023-03-21T14:41:49.454Z,99589.88
2023-03-21T14:44:27.323Z,99596.02
2023-03-21T14:47:03.927Z,99594.44
2023-03-21T14:49:32.376Z,99592.89
2023-03-21T14:52:06.828Z,99595.30
2023-03-21T14:54:33.362Z,99596.41
2023-03-21T14:57:02.170Z,99601.50
2023-03-21T14:59:32.838Z,99598.20
2023-03-21T15:02:02.193Z,99601.13
2023-03-21T15:04:29.390Z,99600.05
2023-03-21T15:06:59.003Z,99601.80
2023-03-21T15:09:26.723Z,99603.66
2023-03-21T15:11:57.962Z,99601.54
2023-03-21T15:14:27.553Z,99606.86
2023-03-21T15:16:54.673Z,99604.46
2023-03-21T15:19:30.761Z,99606.33
2023-03-21T15:22:07.504Z,99605.17
2023-03-21T15:24:38.461Z,99611.98
2023-03-21T15:27:16.796Z,99608.34
2023-03-21T15:29:44.532Z,99609.14
2023-03-21T15:32:17.189Z,99611.03
2023-03-21T15:34:44.981Z,99609.63
2023-03-21T15:37:22.294Z,99611.75
2023-03-21T15:39:51.951Z,99612.55
2023-03-21T15:42:34.302Z,99611.96
2023-03-21T15:45:01.540Z,99615.24
2023-03-21T15:47:53.887Z,99617.60
2023-03-21T15:50:23.351Z,99615.04
2023-03-21T15:52:50.925Z,99614.81
2023-03-21T15:56:01.270Z,99611.20
2023-03-21T15:58:40.148Z,99613.48
2023-03-21T16:01:12.644Z,99618.73
2023-03-21T16:10:51.436Z,99616.84
2023-03-21T16:13:19.615Z,99622.10
2023-03-21T16:15:47.230Z,99619.23
2023-03-21T16:18:21.496Z,99617.11
2023-03-21T16:20:50.385Z,99616.01
2023-03-21T16:23:17.552Z,99619.30
2023-03-21T16:25:56.101Z,99624.69
2023-03-21T16:28:24.643Z,99626.98
2023-03-21T16:30:51.960Z,99627.64
2023-03-21T16:33:19.140Z,99633.97
2023-03-21T16:36:02.932Z,99633.30
2023-03-21T16:38:31.038Z,99636.03
2023-03-21T16:41:01.153Z,99642.29
2023-03-21T16:43:28.630Z,99647.85
2023-03-21T16:45:58.157Z,99646.71
2023-03-21T16:48:25.716Z,99650.20
2023-03-21T16:50:54.076Z,99652.35
2023-03-21T16:53:21.330Z,99652.65
2023-03-21T16:55:48.977Z,99656.56
2023-03-21T16:58:21.956Z,99657.20
2023-03-21T17:00:49.112Z,99655.39
2023-03-21T17:03:19.578Z,99655.34
2023-03-21T17:05:49.255Z,99660.73
2023-03-21T17:08:18.211Z,99665.12
2023-03-21T17:10:45.734Z,99666.51
2023-03-21T17:13:12.888Z,99669.09
2023-03-21T17:15:41.765Z,99668.90
2023-03-21T17:18:10.587Z,99665.50
2023-03-21T17:20:40.600Z,99669.48
2023-03-21T17:23:10.431Z,99669.23
2023-03-21T17:25:37.514Z,99672.29
2023-03-21T17:28:04.867Z,99674.99
2023-03-21T17:30:34.981Z,99671.98
2023-03-21T17:33:04.350Z,99669.86
2023-03-21T17:35:31.703Z,99668.95
2023-03-21T17:37:59.743Z,99666.79
2023-03-21T17:40:29.120Z,99667.36
2023-03-21T17:42:56.462Z,99669.54
2023-03-21T17:45:23.862Z,99665.45
2023-03-21T17:47:51.310Z,99669.27
2023-03-21T17:50:23.434Z,99671.61
2023-03-21T17:52:51.947Z,99671.77
2023-03-21T17:55:24.324Z,99669.19
2023-03-21T17:57:51.649Z,99674.30
2023-03-21T18:00:23.866Z,99677.89
2023-03-21T18:02:54.546Z,99678.74
2023-03-21T18:05:22.644Z,99681.06
2023-03-21T18:10:41.169Z,99680.80
2023-03-21T18:13:08.749Z,99679.58
2023-03-21T18:15:44.819Z,99679.17
2023-03-21T18:18:14.198Z,99676.05
2023-03-21T18:20:51.776Z,99676.51
2023-03-21T18:23:19.933Z,99681.18
2023-03-21T18:25:47.237Z,99680.48
2023-03-21T18:28:25.667Z,99682.02
2023-03-21T18:31:14.290Z,99688.36
2023-03-21T18:33:41.066Z,99690.14
2023-03-21T18:36:09.640Z,99690.31
2023-03-21T18:38:37.301Z,99687.16
2023-03-21T18:41:09.177Z,99689.60
2023-03-21T18:46:26.135Z,99689.38
2023-03-21T18:48:53.435Z,99690.70
2023-03-21T18:51:20.471Z,99692.51
2023-03-21T18:53:47.869Z,99689.59
2023-03-21T18:56:57.776Z,99687.15
2023-03-21T18:59:05.277Z,99687.61
2023-03-21T19:01:33.223Z,99691.33
2023-03-21T19:04:20.386Z,99689.63
2023-03-21T19:06:48.423Z,99690.20
2023-03-21T19:09:17.944Z,99689.41
2023-03-21T19:11:45.884Z,99691.55
2023-03-21T19:14:15.280Z,99688.58
2023-03-21T19:17:12.123Z,99687.67
2023-03-21T19:19:31.406Z,99689.57
2023-03-21T19:21:59.949Z,99686.49
2023-03-21T19:24:29.173Z,99689.05
2023-03-21T19:26:58.913Z,99689.95
2023-03-21T19:29:26.486Z,99693.03
2023-03-21T19:31:54.010Z,99688.87
2023-03-21T19:34:21.576Z,99685.85
2023-03-21T19:36:52.024Z,99690.80
2023-03-21T19:39:22.842Z,99689.14
2023-03-21T19:41:51.246Z,99690.10
2023-03-21T19:44:19.713Z,99694.52
2023-03-21T19:46:48.691Z,99695.62
2023-03-21T19:49:20.263Z,99696.88
2023-03-21T19:51:49.246Z,99695.30
2023-03-21T19:54:18.748Z,99699.52
2023-03-21T19:56:48.059Z,99698.61
2023-03-21T19:59:15.604Z,99697.09
2023-03-21T20:01:46.052Z,99692.63
2023-03-21T20:04:14.844Z,99696.98
2023-03-21T20:06:44.087Z,99698.00
2023-03-21T20:12:05.966Z,99692.27
2023-03-21T20:14:33.366Z,99692.77
2023-03-21T20:17:00.557Z,99685.52
2023-03-21T20:19:29.373Z,99686.40
2023-03-21T20:22:00.611Z,99686.67
2023-03-21T20:24:36.694Z,99686.74
2023-03-21T20:27:04.646Z,99687.46
2023-03-21T20:32:21.518Z,99689.70
2023-03-21T20:34:49.694Z,99688.13
2023-03-21T20:47:06.709Z,99689.52
2023-03-21T20:49:36.117Z,99690.85
2023-03-21T20:54:55.145Z,99692.58
2023-03-21T20:57:25.766Z,99690.80
2023-03-21T20:59:57.712Z,99687.79
2023-03-21T21:02:25.808Z,99685.23
2023-03-21T21:05:23.713Z,99686.91
2023-03-21T21:07:42.764Z,99689.83
2023-03-21T21:10:11.521Z,99691.42
2023-03-21T21:12:39.615Z,99690.21
2023-03-21T21:15:08.439Z,99697.08
2023-03-21T21:20:24.320Z,99706.04
2023-03-21T21:22:59.503Z,99708.92
2023-03-21T21:25:29.151Z,99707.27
2023-03-21T21:27:56.463Z,99706.98
2023-03-21T21:30:23.701Z,99705.16
2023-03-21T21:32:51.665Z,99701.79
2023-03-21T21:35:20.738Z,99698.34
2023-03-21T21:37:48.992Z,99699.17
2023-03-21T21:40:20.679Z,99701.60
2023-03-21T21:42:52.037Z,99702.09
2023-03-21T21:45:20.325Z,99705.11
2023-03-21T21:47:47.447Z,99712.22
2023-03-21T21:50:15.593Z,99706.98
2023-03-21T21:52:44.019Z,99705.88
2023-03-21T21:55:13.296Z,99706.02
2023-03-21T21:57:41.017Z,99706.71
2023-03-21T22:00:13.722Z,99708.64
2023-03-21T22:02:41.564Z,99711.07
2023-03-21T22:05:09.330Z,99710.61
2023-03-21T22:07:41.223Z,99712.99
2023-03-21T22:10:08.795Z,99709.52
2023-03-21T22:12:36.207Z,99712.16
2023-03-21T22:15:10.810Z,99717.10
2023-03-21T22:17:38.868Z,99718.77
2023-03-21T22:20:06.971Z,99718.92
2023-03-21T22:22:38.073Z,99720.85
2023-03-21T22:25:06.960Z,99722.63
2023-03-21T22:27:34.286Z,99724.98
2023-03-21T22:30:05.890Z,99721.95
2023-03-21T22:32:35.161Z,99723.33
2023-03-21T22:35:04.936Z,99725.71
2023-03-21T22:37:33.042Z,99727.12
2023-03-21T22:40:00.292Z,99728.08
2023-03-21T22:42:27.421Z,99729.64
2023-03-21T22:44:54.837Z,99728.15
2023-03-21T22:47:21.779Z,99724.27
2023-03-21T22:49:48.859Z,99720.75
2023-03-21T22:52:16.057Z,99718.22
2023-03-21T22:54:43.259Z,99718.08
2023-03-21T22:57:10.110Z,99713.83
2023-03-21T22:59:37.306Z,99714.40
2023-03-21T23:02:04.292Z,99715.84
2023-03-21T23:04:32.411Z,99711.31
2023-03-21T23:06:59.345Z,99712.94
2023-03-21T23:09:27.403Z,99714.21
2023-03-21T23:14:06.760Z,99714.60
2023-03-21T23:16:38.585Z,99710.84
2023-03-21T23:19:05.997Z,99710.08
2023-03-21T23:21:34.717Z,99709.96
2023-03-21T23:24:02.148Z,99711.23
2023-03-21T23:26:29.694Z,99709.36
2023-03-21T23:28:59.011Z,99710.35
2023-03-21T23:31:27.032Z,99711.48
2023-03-21T23:33:54.665Z,99714.39
2023-03-21T23:36:23.822Z,99711.98
2023-03-21T23:38:51.082Z,99708.15
2023-03-21T23:41:21.328Z,99706.10
2023-03-21T23:43:49.201Z,99704.23
2023-03-21T23:46:16.909Z,99702.70
2023-03-21T23:48:45.510Z,99710.79
2023-03-21T23:51:13.534Z,99711.73
2023-03-21T23:53:45.664Z,99710.89
2023-03-21T23:56:18.234Z,99708.84
2023-03-21T23:58:47.182Z,99709.66
